Meteo Giornale » Osservazioni meteo Stati Uniti (USA) » Franklin-J B Rose

ore: 18:55 - Osservazioni Meteo Franklin-J B Rose
Lat. 36° 42' N Lon. 76° 54' W Alt. 12 metri s.l.m.

molto_nuvoloso

28 °C

Molto Nuvoloso

Temp. 24 Ore

20 °C

34 °C

Nord

0 Km/h

Dew point 22 °C

Umidità 69 %

Visibilità  10 Km

Il sole sorge alle ore 06:38

Il sole tramonta alle ore 19:37

Data e Ora Cielo e Fenomeni T °C DP °C Um. % Pres. hPa Vis. km Vento km/h
Oggi h: 18:55 molto_nuvoloso Molto Nuvoloso 28 22 69 1018 10 N 0
Oggi h: 18:35 molto_nuvoloso Molto Nuvoloso 28 21 65 1018 10 N 0
Oggi h: 18:15 nuvoloso Nuvoloso 28 20 61 1018 10 N 0
Oggi h: 17:55 nuvoloso Nuvoloso 28 20 61 1018 10 E 7.4
Oggi h: 17:35 molto_nuvoloso Molto Nuvoloso 27 21 69 1018 10 N 0
Oggi h: 17:15 coperto Coperto 27 21 69 1018 10 NE 7.4
Oggi h: 16:55 coperto Coperto 27 22 74 1018 11 NE 7.4
Oggi h: 16:35 coperto Coperto 30 19 51 1018 10 N/NE 14.8
Oggi h: 16:15 nuvoloso Nuvoloso 32 17 40 1018 10 N 0
Oggi h: 15:55 nuvoloso Nuvoloso 33 17 38 1018 10 S/SE 9.3
Oggi h: 15:35 nuvoloso Nuvoloso 33 16 36 1018 10 S 9.3
Oggi h: 15:15 nuvoloso Nuvoloso 34 17 36 1018 10 S 13
Oggi h: 14:55 sereno Sereno 34 17 36 1018 10 N 0
Oggi h: 14:35 sereno Sereno 34 17 36 1018 10 S/SE 11.1
Oggi h: 14:15 sereno Sereno 34 17 36 1018 10 S/SE 11.1
Oggi h: 13:55 sereno Sereno 34 16 34 1018 10 N 5.5
Oggi h: 13:35 sereno Sereno 34 16 34 1019 10 SO 7.4
Oggi h: 13:15 sereno Sereno 33 14 31 1019 10 N 5.5
Oggi h: 12:55 sereno Sereno 33 17 38 1019 10 N 0
Oggi h: 12:35 sereno Sereno 32 15 35 1019 10 N 0
Oggi h: 12:15 sereno Sereno 32 20 49 1019 10 N 5.5
Oggi h: 11:55 sereno Sereno 31 20 52 1019 10 N 5.5
Oggi h: 11:35 sereno Sereno 31 21 55 1019 10 N 0
Oggi h: 11:15 sereno Sereno 30 21 58 1020 10 N 0
Oggi h: 10:55 sereno Sereno 30 21 58 1020 10 N 5.5
Oggi h: 10:35 sereno Sereno 29 21 62 1020 10 O 9.3
Oggi h: 10:15 sereno Sereno 28 20 61 1020 10 O 9.3
Oggi h: 09:55 sereno Sereno 28 20 61 1020 10 O/NO 9.3
Oggi h: 09:35 sereno Sereno 27 21 69 1019 10 O 9.3
Oggi h: 09:15 sereno Sereno 26 21 73 1019 10 N 5.5
Oggi h: 08:55 sereno Sereno 25 21 78 1019 10 O 7.4
Oggi h: 08:35 molto_nuvoloso Molto Nuvoloso 24 21 83 1019 10 N 5.5
Oggi h: 08:15 coperto Coperto 23 21 88 1019 10 N 0
Oggi h: 07:55 coperto Coperto 22 21 94 1020 11 N 0
Oggi h: 07:35 coperto Coperto 22 21 94 1020 10 N 0
Oggi h: 07:15 coperto Coperto 21 20 94 1019 10 N 0
Oggi h: 06:55 molto_nuvoloso Molto Nuvoloso 20 19 93 1019 10 N 0
Oggi h: 06:35 nuvoloso Nuvoloso 20 19 93 1019 10 N 0
Oggi h: 06:15 nuvoloso Nuvoloso 20 19 93 1019 10 N 0
Oggi h: 05:55 nuvoloso Nuvoloso 20 19 93 1019 11 N 0
Oggi h: 05:35 sereno Sereno 20 19 93 1019 10 N 0
Oggi h: 05:15 sereno Sereno 21 20 94 1019 10 N 0
Oggi h: 04:55 nuvoloso Nuvoloso 21 19 88 1019 10 N 0
Oggi h: 04:35 molto_nuvoloso Molto Nuvoloso 21 20 94 1019 10 N 0
Oggi h: 04:15 sereno Sereno 21 20 94 1019 10 N 0
Oggi h: 03:55 sereno Sereno 22 21 94 1019 11 N 0
Oggi h: 03:35 sereno Sereno 22 21 94 1019 11 N 0
Oggi h: 03:15 sereno Sereno 22 21 94 1019 10 N 0
Oggi h: 02:55 sereno Sereno 22 20 88 1019 10 N 0
Oggi h: 02:35 sereno Sereno 22 21 94 1019 10 N 0
Oggi h: 02:15 sereno Sereno 22 21 94 1019 10 N 0
Oggi h: 01:55 sereno Sereno 23 21 88 1019 10 N 0
Oggi h: 01:35 sereno Sereno 23 21 88 1019 10 N 5.5
Oggi h: 01:15 sereno Sereno 23 21 88 1019 10 N 5.5
Oggi h: 00:55 sereno Sereno 22 21 94 1020 10 N 0
Oggi h: 00:35 sereno Sereno 22 21 94 1019 10 N 0
Oggi h: 00:15 sereno Sereno 23 21 88 1020 10 N 0
Ieri h: 23:55 sereno Sereno 23 21 88 1020 10 N 0
Ieri h: 23:35 sereno Sereno 23 21 88 1020 10 N 0
Ieri h: 23:15 sereno Sereno 23 21 88 1020 10 S/SE 7.4
Ieri h: 22:55 sereno Sereno 23 21 88 1020 10 N 0
Ieri h: 22:35 sereno Sereno 24 21 83 1020 10 N 0
Ieri h: 22:15 sereno Sereno 23 21 88 1020 10 N 0
Ieri h: 21:55 sereno Sereno 24 21 83 1020 10 N 0
Ieri h: 21:35 sereno Sereno 24 21 83 1020 10 N 0
Ieri h: 21:15 sereno Sereno 25 21 78 1020 10 N 0
Ieri h: 20:55 sereno Sereno 26 22 78 1020 10 N 0
Ieri h: 20:35 sereno Sereno 25 22 83 1020 10 N 5.5
Ieri h: 20:15 sereno Sereno 26 22 78 1019 10 N 0
Ieri h: 19:55 sereno Sereno 27 21 69 1019 10 N 0
Ieri h: 19:35 sereno Sereno 28 21 65 1019 10 N 5.5